Time;durP1;ratioP1;P1;durP2;ratioP2;P2;SDS_P1;SDS_P2;PMS_P1;PMS_P2;Temp;Humidity;BMP_temperature;BMP_pressure;BME280_temperature;BME280_humidity;BME280_pressure;Samples;Min_cycle;Max_cycle;Signal;HPM_P1;HPM_P2
2022/01/14 00:01:04;;;;;;;39.78;19.40;;;;;;;-3.60;73.02;96224.44;5115342;28;20200;-82
2022/01/14 00:03:31;;;;;;;32.45;15.98;;;;;;;-3.53;72.64;96226.06;5115440;28;20635;-81
2022/01/14 00:05:59;;;;;;;36.08;17.80;;;;;;;-3.47;72.45;96221.75;5114831;28;20208;-82
2022/01/14 00:08:26;;;;;;;35.38;17.58;;;;;;;-3.41;71.96;96209.72;5114095;28;20195;-81
2022/01/14 00:10:55;;;;;;;34.25;19.35;;;;;;;-3.41;71.99;96208.00;5114793;28;20643;-82
2022/01/14 00:13:47;;;;;;;45.08;19.38;;;;;;;-3.33;71.87;96213.06;5114818;28;21004;-81
2022/01/14 00:16:15;;;;;;;49.85;20.45;;;;;;;-3.26;71.93;96217.25;5115033;28;20235;-82
2022/01/14 00:18:42;;;;;;;38.47;16.98;;;;;;;-3.22;71.11;96218.94;5115864;28;20188;-82
2022/01/14 00:21:10;;;;;;;31.27;16.58;;;;;;;-3.18;70.69;96228.28;5114920;28;20199;-82
2022/01/14 00:23:40;;;;;;;36.45;17.73;;;;;;;-3.18;70.94;96223.16;5114940;28;20192;-81
2022/01/14 00:31:43;;;;;;;29.58;15.98;;;;;;;-3.33;71.71;96238.72;5114502;28;20184;-82
2022/01/14 00:34:10;;;;;;;31.73;16.98;;;;;;;-3.32;71.43;96232.72;5115078;28;20240;-81
2022/01/14 00:50:08;;;;;;;36.38;15.13;;;;;;;-3.46;71.40;96230.31;5114315;28;20172;-82
2022/01/14 00:52:36;;;;;;;27.05;15.18;;;;;;;-3.42;72.18;96228.56;5114459;28;20185;-82
2022/01/14 00:55:03;;;;;;;38.28;17.73;;;;;;;-3.47;71.63;96237.16;5114318;28;20232;-82
2022/01/14 00:59:14;;;;;;;34.08;16.20;;;;;;;-3.42;71.79;96231.13;5113957;28;20643;-82
2022/01/14 01:00:18;;;;;;;31.52;13.95;;;;;;;-3.33;71.69;96242.16;5084555;28;20209;-82
2022/01/14 01:02:45;;;;;;;26.73;15.40;;;;;;;-3.36;71.60;96239.59;5114284;28;20196;-82
2022/01/14 01:05:14;;;;;;;37.78;15.13;;;;;;;-3.24;70.75;96247.19;5113983;28;20181;-82
2022/01/14 01:07:42;;;;;;;32.00;16.08;;;;;;;-3.23;70.46;96241.19;5113897;28;20208;-82
2022/01/14 01:10:11;;;;;;;30.75;16.55;;;;;;;-3.26;70.86;96243.78;5046100;28;20655;-82
2022/01/14 01:12:47;;;;;;;29.38;14.93;;;;;;;-3.31;70.60;96232.72;5114280;28;20549;-82
2022/01/14 01:15:16;;;;;;;24.30;13.07;;;;;;;-3.28;70.98;96221.56;5113799;28;20181;-82
2022/01/14 01:17:43;;;;;;;27.65;15.13;;;;;;;-3.33;70.76;96213.91;5113831;28;20201;-81
2022/01/14 01:20:16;;;;;;;40.20;15.88;;;;;;;-3.27;70.73;96215.56;5094829;28;20205;-82
2022/01/14 01:22:43;;;;;;;23.15;13.20;;;;;;;-3.26;70.82;96207.84;5114123;28;20200;-81
2022/01/14 01:25:12;;;;;;;24.88;13.50;;;;;;;-3.31;70.69;96201.91;5113900;28;20758;-82
2022/01/14 01:27:42;;;;;;;28.13;14.18;;;;;;;-3.31;70.89;96198.50;5062349;28;20220;-81
2022/01/14 01:30:15;;;;;;;34.58;15.35;;;;;;;-3.32;71.25;96189.97;5113905;28;20211;-81
2022/01/14 01:32:46;;;;;;;22.83;13.95;;;;;;;-3.27;71.32;96195.03;5113655;28;20226;-81
2022/01/14 01:35:15;;;;;;;21.55;12.30;;;;;;;-3.21;70.87;96192.41;5114194;28;20236;-82
2022/01/14 01:37:42;;;;;;;22.45;13.43;;;;;;;-3.18;70.99;96200.06;5114043;28;20193;-82
2022/01/14 01:40:12;;;;;;;26.45;13.05;;;;;;;-3.18;70.70;96198.38;5113520;28;20205;-82
2022/01/14 01:42:41;;;;;;;23.08;12.82;;;;;;;-3.10;70.38;96193.16;5114012;28;20608;-81
2022/01/14 01:45:11;;;;;;;26.98;13.45;;;;;;;-3.12;70.52;96184.63;5113824;28;20624;-82
2022/01/14 01:47:38;;;;;;;27.45;13.63;;;;;;;-3.13;71.03;96183.78;5113637;28;20236;-82
2022/01/14 01:50:11;;;;;;;23.60;13.25;;;;;;;-3.12;71.00;96182.91;5113926;28;20191;-82
2022/01/14 01:52:39;;;;;;;23.80;14.07;;;;;;;-3.09;71.49;96176.88;5062275;28;20212;-81
2022/01/14 01:55:07;;;;;;;27.27;13.70;;;;;;;-3.02;71.31;96175.09;5078238;28;20204;-82
2022/01/14 01:57:34;;;;;;;31.25;13.65;;;;;;;-3.01;70.72;96172.50;5113519;28;20209;-82
2022/01/14 02:00:03;;;;;;;22.83;13.82;;;;;;;-3.02;70.80;96170.81;5113422;28;20196;-82
2022/01/14 02:02:31;;;;;;;20.02;11.10;;;;;;;-2.99;70.53;96164.78;5113551;28;20569;-82
2022/01/14 02:04:59;;;;;;;24.75;11.90;;;;;;;-2.98;70.67;96167.31;5113763;28;20192;-82
2022/01/14 02:07:25;;;;;;;26.38;13.50;;;;;;;-2.95;70.13;96169.00;5113855;28;20225;-82
2022/01/14 02:09:54;;;;;;;22.95;12.40;;;;;;;-2.94;70.11;96161.28;5114508;28;20196;-81
2022/01/14 02:12:20;;;;;;;22.83;12.35;;;;;;;-2.94;70.27;96147.59;5113254;28;20208;-81
2022/01/14 02:15:07;;;;;;;25.17;12.40;;;;;;;-2.89;69.83;96153.53;5113366;28;20193;-81
2022/01/14 02:17:47;;;;;;;28.08;14.35;;;;;;;-2.89;70.14;96136.44;5113691;28;20196;-81
2022/01/14 02:23:07;;;;;;;19.75;11.13;;;;;;;-2.83;69.98;96132.91;5060106;28;20191;-82
2022/01/14 02:25:36;;;;;;;26.30;11.45;;;;;;;-2.87;70.16;96133.84;5058420;28;20296;-82
2022/01/14 02:28:06;;;;;;;19.80;11.57;;;;;;;-2.89;70.54;96125.28;5050657;28;20231;-81
2022/01/14 02:30:35;;;;;;;16.77;10.35;;;;;;;-2.91;70.60;96129.59;5050865;28;20194;-82
2022/01/14 02:33:02;;;;;;;22.50;10.95;;;;;;;-2.91;70.38;96132.16;5053912;28;20210;-82
2022/01/14 02:35:32;;;;;;;18.27;10.98;;;;;;;-2.94;70.99;96119.34;5054096;28;20187;-81
2022/01/14 02:38:00;;;;;;;21.23;11.50;;;;;;;-2.85;71.62;96124.38;5054092;28;20191;-82
2022/01/14 02:40:27;;;;;;;23.42;11.90;;;;;;;-2.81;70.86;96121.75;5054111;28;20206;-82
2022/01/14 02:42:58;;;;;;;31.65;12.15;;;;;;;-2.83;70.34;96122.66;5054497;28;20191;-81
2022/01/14 02:45:28;;;;;;;26.13;12.68;;;;;;;-2.83;70.65;96120.09;5054037;28;20238;-82
2022/01/14 02:47:55;;;;;;;22.25;13.07;;;;;;;-2.83;71.05;96112.38;5053743;28;20254;-82
2022/01/14 02:50:24;;;;;;;22.00;11.45;;;;;;;-2.73;70.97;96124.22;5053840;28;20656;-82
2022/01/14 02:52:58;;;;;;;22.88;13.38;;;;;;;-2.65;70.26;96121.53;5005962;28;20663;-82
2022/01/14 02:55:30;;;;;;;22.92;13.07;;;;;;;-2.66;70.33;96115.56;5053648;28;20290;-82
2022/01/14 02:57:59;;;;;;;28.20;13.70;;;;;;;-2.65;70.37;96117.25;5054272;28;20277;-82
2022/01/14 03:00:30;;;;;;;22.45;12.18;;;;;;;-2.80;70.34;96094.34;5104624;28;20212;-82
2022/01/14 03:02:59;;;;;;;24.48;13.02;;;;;;;-2.75;70.80;96095.13;5097858;28;20651;-82
2022/01/14 03:05:29;;;;;;;24.48;12.32;;;;;;;-2.72;70.28;96094.25;5116733;28;20565;-82
2022/01/14 03:08:00;;;;;;;21.25;11.88;;;;;;;-2.71;70.51;96096.78;5116056;28;20204;-82
2022/01/14 03:10:27;;;;;;;23.65;12.10;;;;;;;-2.74;70.83;96086.56;5116147;28;20204;-82
2022/01/14 03:12:54;;;;;;;26.67;14.43;;;;;;;-2.81;71.03;96075.53;5116027;28;20200;-82
2022/01/14 03:15:21;;;;;;;19.40;11.02;;;;;;;-2.83;71.18;96068.72;5116193;28;20193;-81
2022/01/14 03:17:48;;;;;;;21.75;11.57;;;;;;;-2.88;71.36;96068.78;5116496;28;20226;-82
2022/01/14 03:20:39;;;;;;;23.70;12.18;;;;;;;-2.82;71.12;96084.09;5115854;28;20635;-81
2022/01/14 03:23:06;;;;;;;20.17;11.13;;;;;;;-2.79;71.78;96080.66;5115610;28;20279;-82
2022/01/14 03:25:47;;;;;;;25.40;12.88;;;;;;;-2.77;71.49;96071.19;5116117;28;20184;-82
2022/01/14 03:28:15;;;;;;;20.85;11.68;;;;;;;-2.78;71.30;96063.50;5116831;28;20564;-82
2022/01/14 03:30:42;;;;;;;17.40;11.15;;;;;;;-2.77;71.33;96042.09;5115706;28;20757;-82
2022/01/14 03:33:09;;;;;;;22.30;12.77;;;;;;;-2.79;71.20;96046.41;5063293;28;20227;-82
2022/01/14 03:35:36;;;;;;;25.33;12.55;;;;;;;-2.72;71.40;96060.84;5115697;28;20254;-82
2022/01/14 03:41:26;;;;;;;27.08;12.18;;;;;;;-2.74;70.96;96054.88;5115593;28;20594;-82
2022/01/14 03:43:53;;;;;;;25.88;12.20;;;;;;;-2.71;71.03;96047.13;5115815;28;20185;-81
2022/01/14 03:46:20;;;;;;;23.98;12.85;;;;;;;-2.74;70.90;96044.63;5115864;28;20196;-82
2022/01/14 03:48:47;;;;;;;24.65;12.40;;;;;;;-2.75;71.64;96038.63;5115301;28;20213;-82
2022/01/14 03:51:14;;;;;;;21.50;12.15;;;;;;;-2.76;71.34;96031.78;5115551;28;20196;-82
2022/01/14 03:53:41;;;;;;;20.27;12.02;;;;;;;-2.84;71.63;96033.63;5115242;28;20276;-82
2022/01/14 03:56:08;;;;;;;19.77;11.57;;;;;;;-2.85;71.66;96037.94;5115453;28;20196;-82
2022/01/14 03:58:36;;;;;;;22.48;11.07;;;;;;;-2.81;71.57;96038.72;5115184;28;20188;-82
2022/01/14 04:01:06;;;;;;;17.05;10.18;;;;;;;-2.79;71.66;96041.28;5115725;28;20189;-82
2022/01/14 04:03:33;;;;;;;21.90;10.75;;;;;;;-2.76;71.71;96046.34;5114947;28;20682;-81
2022/01/14 04:12:51;;;;;;;27.15;13.27;;;;;;;-2.69;72.02;96053.94;5114989;28;20211;-81
2022/01/14 04:15:38;;;;;;;24.25;11.77;;;;;;;-2.72;71.65;96030.88;5114777;28;20200;-82
2022/01/14 04:18:06;;;;;;;21.23;13.52;;;;;;;-2.79;72.62;96021.56;5114759;28;20185;-82
2022/01/14 04:20:33;;;;;;;25.70;12.45;;;;;;;-2.78;72.41;96015.56;5114942;28;20230;-82
2022/01/14 04:23:00;;;;;;;20.20;10.30;;;;;;;-2.75;71.89;96015.50;5115287;28;20595;-82
2022/01/14 04:25:27;;;;;;;21.38;13.00;;;;;;;-2.78;71.85;96015.56;5114655;28;20576;-82
2022/01/14 04:27:54;;;;;;;17.25;11.27;;;;;;;-2.79;71.94;96005.31;5115479;28;20251;-82
2022/01/14 04:30:24;;;;;;;23.83;13.23;;;;;;;-2.77;72.19;96012.13;5079062;28;20204;-82
2022/01/14 04:32:51;;;;;;;21.25;12.18;;;;;;;-2.84;72.14;96018.22;5114682;28;20207;-81
2022/01/14 04:35:18;;;;;;;18.75;11.68;;;;;;;-2.78;71.74;96030.13;5114394;28;20200;-82
2022/01/14 04:37:47;;;;;;;19.30;11.35;;;;;;;-2.75;71.70;96028.34;5114648;28;20211;-81
2022/01/14 04:40:14;;;;;;;26.48;13.48;;;;;;;-2.75;72.39;96033.50;5114927;28;20665;-82
2022/01/14 04:42:43;;;;;;;27.00;14.02;;;;;;;-2.87;72.20;96023.41;5114251;28;20181;-82
2022/01/14 04:45:11;;;;;;;27.17;14.02;;;;;;;-2.81;72.60;96018.19;5114359;28;20212;-82
2022/01/14 04:47:46;;;;;;;22.88;13.43;;;;;;;-2.92;72.36;96014.91;5114746;28;20296;-82
2022/01/14 04:50:15;;;;;;;18.52;11.18;;;;;;;-2.87;72.57;96018.28;5114129;28;20199;-82
2022/01/14 04:52:44;;;;;;;29.45;13.57;;;;;;;-2.81;72.73;96010.47;5115020;28;20189;-82
2022/01/14 04:55:12;;;;;;;22.65;12.73;;;;;;;-2.81;72.40;96015.63;5113667;28;20205;-82
2022/01/14 04:57:40;;;;;;;19.83;12.52;;;;;;;-2.79;73.16;96023.28;5078796;28;20197;-81
2022/01/14 05:00:10;;;;;;;24.25;11.70;;;;;;;-2.80;72.77;96012.19;5114627;28;20208;-82
2022/01/14 05:02:37;;;;;;;23.13;12.95;;;;;;;-2.76;72.42;96015.53;5114315;28;20181;-81
2022/01/14 05:05:06;;;;;;;17.40;10.90;;;;;;;-2.75;72.51;96002.66;5114512;28;20272;-82
2022/01/14 05:07:34;;;;;;;15.55;10.55;;;;;;;-2.76;72.48;96002.69;5113685;28;20239;-82
2022/01/14 05:10:17;;;;;;;19.13;11.95;;;;;;;-2.75;72.14;95994.97;5113984;28;20662;-82
2022/01/14 05:12:45;;;;;;;21.27;10.43;;;;;;;-2.67;71.87;95992.28;5078259;28;20283;-81
2022/01/14 05:15:13;;;;;;;13.38;9.73;;;;;;;-2.70;71.47;95982.06;5113942;28;20188;-81
2022/01/14 05:17:40;;;;;;;14.00;9.45;;;;;;;-2.67;71.32;95985.41;5113753;28;20189;-81
2022/01/14 05:20:10;;;;;;;19.13;9.65;;;;;;;-2.67;72.13;95980.28;5113836;28;20192;-82
2022/01/14 05:22:37;;;;;;;17.65;10.00;;;;;;;-2.73;71.83;95977.81;5114553;28;20557;-81
2022/01/14 05:25:04;;;;;;;17.73;10.55;;;;;;;-2.70;72.17;95982.91;5114489;28;20201;-81
2022/01/14 05:27:33;;;;;;;24.15;13.40;;;;;;;-2.76;72.53;95979.59;5078564;28;20228;-82
2022/01/14 05:30:00;;;;;;;20.08;12.50;;;;;;;-2.84;72.59;95992.56;5114200;28;20196;-82
2022/01/14 05:32:28;;;;;;;26.98;13.38;;;;;;;-2.86;72.84;96004.56;5113520;28;20185;-79
2022/01/14 05:34:55;;;;;;;21.45;12.80;;;;;;;-2.85;72.81;95996.00;5114280;28;20256;-80
2022/01/14 05:37:23;;;;;;;29.77;13.13;;;;;;;-2.92;72.90;95999.50;5114132;28;20185;-80
2022/01/14 05:39:50;;;;;;;17.20;10.82;;;;;;;-2.90;73.09;96002.88;5113538;28;20185;-80
2022/01/14 05:42:17;;;;;;;22.02;12.75;;;;;;;-2.96;73.41;96003.84;5114855;28;20196;-85
2022/01/14 05:44:44;;;;;;;19.40;12.52;;;;;;;-2.92;73.24;96005.47;5113734;28;20537;-84
2022/01/14 05:47:11;;;;;;;16.80;10.73;;;;;;;-3.17;73.82;95984.47;5061603;28;20643;-84
2022/01/14 05:49:38;;;;;;;22.08;11.18;;;;;;;-3.15;74.05;95987.00;5113712;28;20204;-80
2022/01/14 05:52:05;;;;;;;23.52;12.50;;;;;;;-3.14;74.66;95979.28;5113767;28;20192;-80
2022/01/14 05:54:33;;;;;;;22.95;12.30;;;;;;;-3.24;74.42;95985.41;5113415;28;20658;-80
2022/01/14 05:57:00;;;;;;;23.65;14.50;;;;;;;-3.12;74.17;95982.69;5113490;28;20193;-80
2022/01/14 05:59:27;;;;;;;18.75;11.32;;;;;;;-3.15;74.67;95989.59;5113407;28;20193;-80
2022/01/14 06:01:54;;;;;;;18.92;11.40;;;;;;;-3.04;74.73;95994.56;5113669;28;20201;-80
2022/01/14 06:04:21;;;;;;;22.27;15.45;;;;;;;-3.35;75.41;95983.88;5077985;28;20197;-81
2022/01/14 06:06:48;;;;;;;22.42;13.90;;;;;;;-3.22;75.44;95980.25;5115697;28;20195;-83
2022/01/14 06:09:15;;;;;;;28.48;16.70;;;;;;;-3.29;75.76;95968.38;5117160;28;20682;-79
2022/01/14 06:11:43;;;;;;;31.63;16.35;;;;;;;-3.25;75.25;95977.72;5117397;28;20189;-81
2022/01/14 06:14:10;;;;;;;28.52;15.63;;;;;;;-3.15;75.34;95977.59;5117533;28;20192;-79
2022/01/14 06:16:36;;;;;;;41.47;18.88;;;;;;;-3.04;75.38;95977.44;5117383;28;20189;-80
2022/01/14 06:19:03;;;;;;;33.22;17.67;;;;;;;-2.89;75.23;95973.78;5117392;28;20181;-80
2022/01/14 06:21:30;;;;;;;36.33;19.70;;;;;;;-2.84;74.96;95977.16;5117301;28;20193;-79
2022/01/14 06:23:57;;;;;;;99.40;36.10;;;;;;;-2.75;74.85;95982.13;5117702;28;20185;-79
2022/01/14 06:26:24;;;;;;;154.10;51.53;;;;;;;-2.60;75.05;95976.75;5065144;28;20211;-79
2022/01/14 06:28:53;;;;;;;55.85;25.75;;;;;;;-2.64;73.74;95972.50;5116125;28;20589;-80
2022/01/14 06:34:41;;;;;;;41.13;23.05;;;;;;;-2.61;73.98;95962.19;5110674;28;20277;-80
2022/01/14 06:37:08;;;;;;;103.78;38.55;;;;;;;-2.75;74.47;95956.44;5116837;28;20635;-80
2022/01/14 06:39:35;;;;;;;129.52;45.55;;;;;;;-3.00;75.49;95975.66;5064854;28;20204;-80
2022/01/14 06:42:01;;;;;;;94.75;34.45;;;;;;;-2.85;76.25;95960.03;5116713;28;20192;-80
2022/01/14 06:51:15;;;;;;;47.58;25.02;;;;;;;-2.47;75.51;95963.69;5116607;28;20184;-80
2022/01/14 06:53:42;;;;;;;57.50;27.33;;;;;;;-2.30;75.04;95951.41;5116448;28;20250;-80
2022/01/14 06:56:11;;;;;;;53.28;25.48;;;;;;;-2.08;75.40;95954.41;5116992;28;20185;-79
2022/01/14 06:58:38;;;;;;;51.95;22.70;;;;;;;-1.94;74.94;95963.59;5115648;28;20239;-80
2022/01/14 07:01:05;;;;;;;46.97;24.88;;;;;;;-2.02;74.38;95942.31;5115494;28;20203;-80
2022/01/14 07:03:32;;;;;;;40.70;25.35;;;;;;;-1.88;74.97;95937.72;5115382;28;20292;-80
2022/01/14 07:05:59;;;;;;;38.80;20.73;;;;;;;-1.78;74.81;95932.41;5115118;28;20215;-80
2022/01/14 07:08:28;;;;;;;65.22;40.00;;;;;;;-1.73;75.31;95928.88;5114757;28;20228;-80
2022/01/14 07:10:54;;;;;;;122.80;50.78;;;;;;;-1.82;75.18;95926.47;5114989;28;20200;-80
2022/01/14 07:13:21;;;;;;;79.47;38.90;;;;;;;-1.65;75.75;95913.28;5114995;28;20268;-80
2022/01/14 07:15:48;;;;;;;100.72;40.35;;;;;;;-1.60;75.80;95917.44;5114779;28;20555;-79
2022/01/14 07:18:16;;;;;;;72.75;32.92;;;;;;;-1.53;76.26;95917.31;5114732;28;20655;-79
2022/01/14 07:20:43;;;;;;;97.38;38.25;;;;;;;-1.46;76.43;95919.69;5114502;28;20744;-79
2022/01/14 07:23:10;;;;;;;136.15;47.60;;;;;;;-1.34;76.02;95908.31;5114965;28;20208;-79
2022/01/14 07:25:39;;;;;;;117.75;49.03;;;;;;;-1.53;75.75;95907.84;5115626;28;20192;-79
2022/01/14 07:28:06;;;;;;;239.90;89.18;;;;;;;-1.41;75.93;95907.59;5124091;22;20234;-80
2022/01/14 07:30:33;;;;;;;321.52;110.45;;;;;;;-1.52;75.76;95908.69;5008445;28;20206;-80
2022/01/14 07:33:01;;;;;;;106.53;45.55;;;;;;;-1.69;75.82;95911.66;5034955;28;20200;-81
2022/01/14 07:35:28;;;;;;;112.15;48.63;;;;;;;-1.50;76.45;95912.94;5034233;28;20206;-80
2022/01/14 07:37:55;;;;;;;105.95;44.25;;;;;;;-1.31;77.08;95918.53;5034971;28;20202;-80
2022/01/14 07:40:22;;;;;;;75.43;39.88;;;;;;;-1.18;76.43;95908.78;5034174;28;20207;-80
2022/01/14 07:42:50;;;;;;;69.25;33.47;;;;;;;-1.73;77.84;95900.59;5016083;28;20218;-82
2022/01/14 07:45:19;;;;;;;91.07;41.65;;;;;;;-1.47;78.50;95901.72;5033832;28;20195;-81
2022/01/14 07:47:46;;;;;;;102.25;46.30;;;;;;;-1.36;78.81;95899.78;5034209;28;20208;-81
2022/01/14 07:50:13;;;;;;;82.13;40.08;;;;;;;-1.17;78.79;95890.72;5034387;28;20223;-81
2022/01/14 07:52:40;;;;;;;55.60;29.30;;;;;;;-0.99;78.48;95884.31;5034140;28;20232;-80
2022/01/14 07:55:08;;;;;;;67.72;33.72;;;;;;;-0.88;77.95;95882.31;5033806;28;20195;-81
2022/01/14 07:57:35;;;;;;;53.35;30.55;;;;;;;-0.64;79.22;95892.03;5033636;28;20569;-82
2022/01/14 08:00:06;;;;;;;53.70;30.58;;;;;;;-0.65;76.66;95887.75;5033588;28;20203;-81
2022/01/14 08:02:33;;;;;;;49.42;27.67;;;;;;;-0.60;76.37;95881.63;5033739;28;20218;-80
2022/01/14 08:05:00;;;;;;;54.97;28.48;;;;;;;-0.54;77.04;95886.66;5033796;28;20203;-81
2022/01/14 08:07:28;;;;;;;59.30;29.92;;;;;;;-0.48;76.70;95883.91;5034042;28;20204;-81
2022/01/14 08:09:56;;;;;;;52.72;29.42;;;;;;;-0.53;76.26;95888.34;5033726;28;20314;-80
2022/01/14 08:12:23;;;;;;;47.65;25.10;;;;;;;-0.52;77.75;95882.31;5015206;28;20218;-80
2022/01/14 08:14:50;;;;;;;50.08;25.83;;;;;;;-0.53;77.57;95873.72;5033468;28;20298;-80
2022/01/14 08:17:20;;;;;;;44.90;24.35;;;;;;;-0.54;77.61;95872.03;5034646;28;20208;-79
2022/01/14 08:19:47;;;;;;;37.55;21.45;;;;;;;-0.50;78.13;95867.63;5034755;28;20239;-80
2022/01/14 08:22:14;;;;;;;33.38;18.42;;;;;;;-0.46;78.47;95867.50;5034239;28;20192;-81
2022/01/14 08:24:41;;;;;;;32.35;19.70;;;;;;;-0.74;79.54;95859.66;5034609;28;20191;-82
2022/01/14 08:27:08;;;;;;;42.40;19.77;;;;;;;-0.73;80.17;95858.75;5034181;28;20227;-82
2022/01/14 08:29:36;;;;;;;36.53;20.25;;;;;;;-0.69;79.92;95862.09;5033319;28;20218;-82
2022/01/14 08:32:04;;;;;;;38.30;20.85;;;;;;;-0.51;79.31;95855.63;5034359;28;20211;-81
2022/01/14 08:34:32;;;;;;;38.13;21.30;;;;;;;-0.41;79.26;95846.75;5034229;28;20563;-82
2022/01/14 08:36:59;;;;;;;36.75;20.00;;;;;;;-0.45;78.98;95851.16;5033893;28;20201;-79
2022/01/14 08:39:26;;;;;;;42.67;22.60;;;;;;;-0.56;78.70;95837.72;4999622;28;20203;-80
2022/01/14 08:41:55;;;;;;;41.20;19.08;;;;;;;-0.64;80.29;95839.63;5035074;28;20211;-81
2022/01/14 08:44:22;;;;;;;37.08;20.48;;;;;;;-0.35;80.52;95836.28;5034273;28;20298;-81
2022/01/14 08:46:49;;;;;;;46.42;23.38;;;;;;;-0.12;79.29;95844.22;5034135;28;20195;-81
2022/01/14 08:49:16;;;;;;;40.05;20.65;;;;;;;0.01;79.06;95839.59;5034004;28;20567;-81
2022/01/14 08:51:44;;;;;;;39.08;19.13;;;;;;;0.04;78.31;95844.66;5033613;28;20674;-80
2022/01/14 08:54:11;;;;;;;40.60;22.02;;;;;;;0.17;78.66;95834.81;5033573;28;20205;-80
2022/01/14 08:56:38;;;;;;;42.72;24.70;;;;;;;0.20;78.92;95829.56;5033940;28;20188;-81
2022/01/14 08:59:05;;;;;;;33.55;17.77;;;;;;;0.02;79.19;95836.13;5034138;28;20207;-82
2022/01/14 09:01:32;;;;;;;36.90;19.83;;;;;;;0.25;79.15;95827.69;5033507;28;20677;-82
2022/01/14 09:04:01;;;;;;;34.78;22.42;;;;;;;0.46;79.43;95821.03;5033933;28;20560;-81
2022/01/14 09:06:28;;;;;;;32.25;17.15;;;;;;;0.28;78.59;95822.44;5033570;28;20692;-81
2022/01/14 09:08:56;;;;;;;35.97;18.45;;;;;;;0.18;79.02;95826.19;5033314;28;20209;-81
2022/01/14 09:11:23;;;;;;;35.50;20.63;;;;;;;0.04;79.73;95816.28;5033495;28;20192;-81
2022/01/14 09:13:50;;;;;;;34.22;18.55;;;;;;;0.08;80.23;95814.44;5033725;28;20192;-81
2022/01/14 09:16:20;;;;;;;54.50;24.38;;;;;;;0.22;81.14;95812.28;4999133;28;20199;-81
2022/01/14 09:18:47;;;;;;;44.05;22.42;;;;;;;0.40;80.64;95800.59;5033639;28;20188;-81
2022/01/14 09:21:15;;;;;;;40.15;21.02;;;;;;;0.58;80.71;95800.88;5033823;28;20207;-81
2022/01/14 09:23:43;;;;;;;26.98;17.35;;;;;;;0.71;82.92;95783.22;5034121;28;20207;-80
2022/01/14 09:26:12;;;;;;;25.08;13.90;;;;;;;0.92;85.96;95782.53;5033805;28;20198;-80
2022/01/14 09:28:39;;;;;;;21.27;10.77;;;;;;;1.12;86.38;95770.69;5034889;28;20698;-79
2022/01/14 09:31:06;;;;;;;20.67;11.10;;;;;;;1.26;87.05;95768.47;5035452;28;20203;-80
2022/01/14 09:33:34;;;;;;;16.67;9.85;;;;;;;1.41;85.75;95761.91;5035099;28;20596;-81
2022/01/14 09:36:01;;;;;;;27.45;16.70;;;;;;;1.49;83.36;95758.19;5034594;28;20219;-80
2022/01/14 09:38:28;;;;;;;33.80;16.50;;;;;;;1.61;83.35;95749.13;5033439;28;20657;-81
2022/01/14 09:40:56;;;;;;;14.90;11.00;;;;;;;1.76;84.18;95758.94;5035774;28;20441;-81
2022/01/14 09:43:25;;;;;;;18.30;10.57;;;;;;;1.85;84.90;95758.59;5037329;28;20778;-80
2022/01/14 09:45:53;;;;;;;39.60;22.88;;;;;;;1.93;84.00;95758.31;5037008;28;20449;-80
2022/01/14 09:48:20;;;;;;;14.37;9.53;;;;;;;1.99;84.35;95757.22;5037463;28;20203;-80
2022/01/14 09:50:47;;;;;;;23.90;12.60;;;;;;;2.06;84.59;95751.78;5036801;28;20495;-80
2022/01/14 09:53:15;;;;;;;17.60;10.55;;;;;;;2.08;83.72;95746.53;5037559;28;20426;-80
2022/01/14 09:55:43;;;;;;;14.13;10.60;;;;;;;2.11;84.50;95733.47;5037257;28;20203;-81
2022/01/14 09:58:10;;;;;;;27.63;15.10;;;;;;;2.17;83.92;95726.31;5037666;28;20218;-81
2022/01/14 10:00:39;;;;;;;16.23;10.13;;;;;;;2.24;84.39;95723.47;5037591;28;20447;-81
2022/01/14 10:03:21;;;;;;;16.37;10.07;;;;;;;2.34;83.76;95710.13;5037172;28;20430;-81
2022/01/14 10:05:51;;;;;;;32.27;13.77;;;;;;;2.39;83.81;95713.38;5038109;28;20434;-81
2022/01/14 10:08:22;;;;;;;16.53;8.50;;;;;;;2.37;83.36;95707.41;5036952;28;20944;-81
2022/01/14 10:10:52;;;;;;;17.20;10.17;;;;;;;2.41;83.64;95708.13;5037626;28;20569;-79
2022/01/14 10:13:21;;;;;;;19.83;12.00;;;;;;;2.52;83.91;95705.09;5037933;28;20949;-80
2022/01/14 10:15:52;;;;;;;14.03;9.10;;;;;;;2.61;84.53;95681.44;5043042;28;20456;-79
2022/01/14 10:18:21;;;;;;;15.53;8.63;;;;;;;2.71;83.46;95687.91;5037034;28;20441;-79
2022/01/14 10:20:49;;;;;;;16.97;9.00;;;;;;;2.69;83.46;95680.22;5019043;28;20443;-80
2022/01/14 10:23:16;;;;;;;18.73;13.20;;;;;;;2.77;82.35;95670.34;5037268;28;20931;-81
2022/01/14 10:25:57;;;;;;;37.30;15.80;;;;;;;2.97;83.40;95687.69;5036635;28;20473;-80
2022/01/14 10:28:24;;;;;;;12.50;7.47;;;;;;;3.13;82.25;95679.22;5036770;28;20497;-81
2022/01/14 10:31:00;;;;;;;21.60;10.90;;;;;;;3.29;81.83;95662.94;5037047;28;20492;-80
2022/01/14 10:33:30;;;;;;;12.60;8.57;;;;;;;3.31;80.61;95655.94;5036743;28;20878;-80
2022/01/14 10:35:57;;;;;;;19.93;12.80;;;;;;;3.39;80.78;95659.03;5036566;28;20442;-80
2022/01/14 10:38:26;;;;;;;14.20;8.23;;;;;;;3.42;80.20;95652.84;5036649;28;20436;-80
2022/01/14 10:40:55;;;;;;;10.10;7.30;;;;;;;3.36;80.00;95645.34;5036101;28;21020;-80
2022/01/14 10:43:31;;;;;;;14.07;9.07;;;;;;;3.43;80.14;95636.38;5036217;28;20419;-80
2022/01/14 10:45:59;;;;;;;12.30;8.60;;;;;;;3.36;80.20;95634.97;5019932;28;20804;-80
2022/01/14 10:48:32;;;;;;;14.83;7.73;;;;;;;3.24;79.86;95632.94;5036114;28;20481;-81
2022/01/14 10:51:00;;;;;;;22.23;10.37;;;;;;;3.27;79.96;95628.47;5035729;28;20974;-80
2022/01/14 10:53:30;;;;;;;18.97;8.00;;;;;;;3.24;80.39;95626.00;5035486;28;20438;-81
2022/01/14 10:56:01;;;;;;;15.37;10.33;;;;;;;3.29;79.97;95618.00;5035848;28;20438;-80
2022/01/14 10:58:31;;;;;;;22.53;10.43;;;;;;;3.29;80.18;95616.25;5036039;28;20430;-82
2022/01/14 11:01:02;;;;;;;40.67;14.10;;;;;;;3.31;80.18;95619.63;5036154;28;20578;-82
2022/01/14 11:03:37;;;;;;;19.87;11.00;;;;;;;3.32;79.97;95617.88;5036934;28;20427;-80
2022/01/14 11:06:21;;;;;;;26.20;14.20;;;;;;;3.43;80.00;95600.06;5035944;28;20431;-82
2022/01/14 11:08:50;;;;;;;28.30;14.10;;;;;;;3.55;79.00;95599.53;5035760;28;20453;-81
2022/01/14 11:11:17;;;;;;;29.77;13.40;;;;;;;3.68;79.13;95592.00;5035768;28;20980;-81
2022/01/14 11:13:45;;;;;;;18.90;11.87;;;;;;;3.70;77.23;95587.56;5036860;28;20439;-81
2022/01/14 11:16:13;;;;;;;21.27;11.47;;;;;;;3.69;76.82;95580.69;5037180;28;20432;-82
2022/01/14 11:18:41;;;;;;;26.23;13.20;;;;;;;3.78;77.27;95579.44;5018059;28;20439;-82
2022/01/14 11:23:52;;;;;;;20.80;12.10;;;;;;;4.03;77.04;95560.00;5037783;28;20416;-84
2022/01/14 11:26:22;;;;;;;20.60;12.23;;;;;;;4.18;77.39;95548.03;5036817;28;20445;-83
2022/01/14 11:28:49;;;;;;;21.93;12.07;;;;;;;4.24;76.52;95542.53;5036497;28;20573;-83
2022/01/14 11:31:28;;;;;;;21.97;13.20;;;;;;;4.37;76.53;95523.75;5036551;28;20477;-86
2022/01/14 11:44:01;;;;;;;14.63;8.43;;;;;;;4.59;74.70;95517.38;5027358;28;20480;-83
2022/01/14 11:46:47;;;;;;;13.13;7.57;;;;;;;4.62;73.98;95505.97;5015599;28;20483;-83
2022/01/14 11:49:35;;;;;;;11.87;8.70;;;;;;;4.64;74.30;95510.19;5016183;28;20803;-84
2022/01/14 11:52:05;;;;;;;10.37;7.20;;;;;;;4.67;73.74;95496.19;5017194;28;20449;-85
2022/01/14 11:54:43;;;;;;;23.93;10.83;;;;;;;4.65;73.73;95492.84;5015730;28;20438;-84
2022/01/14 11:57:11;;;;;;;12.40;8.53;;;;;;;4.72;72.84;95502.00;5018668;28;20432;-84
2022/01/14 11:59:47;;;;;;;9.40;5.80;;;;;;;4.78;72.61;95490.44;4999135;28;20436;-85
2022/01/14 12:09:04;;;;;;;10.93;7.30;;;;;;;4.87;73.29;95477.78;5017447;28;20452;-84
2022/01/14 12:11:31;;;;;;;12.93;6.93;;;;;;;4.92;72.43;95482.75;5016836;28;20484;-83
2022/01/14 12:14:03;;;;;;;19.83;8.23;;;;;;;4.96;72.88;95473.88;4998381;28;20444;-82
2022/01/14 12:16:46;;;;;;;13.93;7.30;;;;;;;4.94;72.97;95462.72;5017212;28;20468;-82
2022/01/14 12:19:21;;;;;;;10.80;7.70;;;;;;;4.93;72.72;95472.28;5017325;28;20433;-85
2022/01/14 12:22:09;;;;;;;15.60;8.17;;;;;;;5.03;73.88;95463.97;4996503;28;20449;-83
2022/01/14 12:24:49;;;;;;;12.33;8.10;;;;;;;5.11;72.63;95459.19;4995225;28;20547;-84
2022/01/14 12:27:47;;;;;;;12.40;7.70;;;;;;;5.18;72.85;95463.97;4996861;28;20569;-85
2022/01/14 12:30:18;;;;;;;9.57;7.90;;;;;;;5.23;72.60;95445.53;4976262;28;20617;-83